Terminal Aerodrome Forecast
Issued by NWS Cleveland, OH

Home | Current Version | Previous Version | Graphics & Text | Print | Product List | Glossary On
Versions: 1 2 3 4 5 6 7 8 9 10 11 12 13 14 15
935
FTUS41 KCLE 261812 AAA
TAFERI
TAF AMD
KERI 261812Z 2618/2718 19010G20KT P6SM SCT050 BKN250
     FM270700 18006KT P6SM VCSH BKN070
     FM271000 19005KT P6SM BKN050
     FM271600 25007KT P6SM SCT050=

USA.gov is the U.S. government's official web portal to all federal, state and local government web resources and services.